Time;durP1;ratioP1;P1;durP2;ratioP2;P2;SDS_P1;SDS_P2;PMS_P1;PMS_P2;Temp;Humidity;BMP_temperature;BMP_pressure;BME280_temperature;BME280_humidity;BME280_pressure;Samples;Min_cycle;Max_cycle;Signal;HPM_P1;HPM_P2
2022/11/19 00:00:02;;;;;;;24.80;11.00;;;;;;;0.82;100.00;100086.58;1731016;81;21016;-76
2022/11/19 00:02:31;;;;;;;24.77;10.10;;;;;;;0.84;100.00;100076.19;1745233;82;20999;-75
2022/11/19 00:04:58;;;;;;;25.70;10.97;;;;;;;0.89;100.00;100074.54;1751824;82;21031;-77
2022/11/19 00:07:25;;;;;;;23.43;10.50;;;;;;;0.90;100.00;100065.12;1734049;81;21536;-74
2022/11/19 00:09:51;;;;;;;24.53;10.50;;;;;;;0.92;100.00;100049.88;1794382;78;21030;-74
2022/11/19 00:15:06;;;;;;;22.17;10.27;;;;;;;0.98;100.00;100038.42;1733582;81;21437;-75
2022/11/19 00:17:33;;;;;;;20.30;9.47;;;;;;;0.98;100.00;100037.94;1753766;82;21078;-75
2022/11/19 00:20:01;;;;;;;22.97;10.43;;;;;;;1.00;100.00;100033.34;1806525;78;20991;-73
2022/11/19 00:22:28;;;;;;;21.10;9.80;;;;;;;1.02;100.00;100031.42;1804696;78;20993;-74
2022/11/19 00:24:56;;;;;;;21.03;9.80;;;;;;;1.02;100.00;100032.75;1734296;82;21088;-75
2022/11/19 00:27:23;;;;;;;20.00;8.13;;;;;;;1.04;100.00;100018.00;1737303;81;21530;-73
2022/11/19 00:29:50;;;;;;;21.97;9.80;;;;;;;1.06;100.00;100005.42;1735447;82;21490;-76
2022/11/19 00:32:16;;;;;;;21.67;9.27;;;;;;;1.07;100.00;100015.97;1733637;82;21059;-74
2022/11/19 00:34:44;;;;;;;21.90;9.10;;;;;;;1.09;100.00;100009.20;1731509;82;21115;-75
2022/11/19 00:37:10;;;;;;;20.63;8.83;;;;;;;1.11;100.00;100003.28;1737347;82;21044;-74
2022/11/19 00:39:38;;;;;;;21.77;10.13;;;;;;;1.12;100.00;99996.52;1724970;82;21036;-74
2022/11/19 00:42:05;;;;;;;20.00;9.23;;;;;;;1.13;100.00;99981.38;1730427;82;21513;-74
2022/11/19 00:44:32;;;;;;;25.83;11.63;;;;;;;1.14;100.00;99997.73;1736014;81;21506;-76
2022/11/19 00:46:59;;;;;;;22.37;9.50;;;;;;;1.15;100.00;99987.44;1730174;82;21056;-75
2022/11/19 00:49:25;;;;;;;22.33;10.10;;;;;;;1.17;100.00;99977.55;1740705;81;21033;-72
2022/11/19 00:51:52;;;;;;;21.30;10.13;;;;;;;1.18;100.00;99957.92;1735442;82;21039;-76
2022/11/19 00:54:19;;;;;;;21.27;9.43;;;;;;;1.20;100.00;99961.31;1734972;82;21037;-75
2022/11/19 00:56:46;;;;;;;23.73;10.33;;;;;;;1.23;100.00;99962.92;1734001;81;21052;-76
2022/11/19 00:59:13;;;;;;;22.20;9.63;;;;;;;1.24;100.00;99965.94;1732863;82;21549;-74
2022/11/19 01:01:40;;;;;;;23.70;9.60;;;;;;;1.26;100.00;99968.87;1737233;82;21020;-74
2022/11/19 01:04:07;;;;;;;20.37;8.77;;;;;;;1.30;100.00;99969.49;1726010;81;21650;-77
2022/11/19 01:06:34;;;;;;;21.27;9.23;;;;;;;1.34;100.00;99964.30;1735886;81;21053;-75
2022/11/19 01:09:01;;;;;;;17.37;8.40;;;;;;;1.36;100.00;99946.87;1713591;82;21057;-76
2022/11/19 01:11:32;;;;;;;21.63;9.03;;;;;;;1.37;100.00;99940.59;1754780;81;21014;-76
2022/11/19 01:13:59;;;;;;;19.00;8.90;;;;;;;1.39;100.00;99919.52;1796131;79;21060;-75
2022/11/19 01:16:36;;;;;;;20.90;9.53;;;;;;;1.40;100.00;99917.23;1792537;79;21054;-76
2022/11/19 01:19:07;;;;;;;18.23;9.07;;;;;;;1.42;100.00;99925.11;1697101;82;21128;-76
2022/11/19 01:21:34;;;;;;;21.20;9.80;;;;;;;1.43;100.00;99916.97;1698017;83;21515;-75
2022/11/19 01:24:02;;;;;;;19.33;8.20;;;;;;;1.45;100.00;99920.86;1688802;83;21059;-74
2022/11/19 01:26:30;;;;;;;19.90;9.33;;;;;;;1.47;100.00;99909.59;1734602;82;21003;-77
2022/11/19 01:28:58;;;;;;;18.17;8.60;;;;;;;1.47;100.00;99908.27;1721361;82;21563;-75
2022/11/19 01:31:27;;;;;;;18.93;8.67;;;;;;;1.48;100.00;99905.98;1721755;82;21030;-75
2022/11/19 01:33:55;;;;;;;19.47;9.30;;;;;;;1.48;100.00;99897.98;1737514;82;21153;-74
2022/11/19 01:36:25;;;;;;;18.77;9.17;;;;;;;1.48;100.00;99899.32;1742263;82;21015;-76
2022/11/19 01:38:53;;;;;;;19.77;9.47;;;;;;;1.50;100.00;99866.73;1739723;81;21055;-76
2022/11/19 01:41:24;;;;;;;19.00;8.47;;;;;;;1.50;100.00;99873.39;1719693;82;21089;-76
2022/11/19 01:44:09;;;;;;;15.63;7.37;;;;;;;1.51;100.00;99868.45;1703359;81;21083;-77
2022/11/19 01:46:37;;;;;;;15.03;7.03;;;;;;;1.52;100.00;99855.47;1703276;83;21046;-76
2022/11/19 01:49:16;;;;;;;16.33;7.63;;;;;;;1.55;100.00;99857.91;1710132;82;21039;-77
2022/11/19 01:52:01;;;;;;;16.73;8.10;;;;;;;1.56;100.00;99844.96;1708681;83;21147;-76
2022/11/19 01:54:39;;;;;;;15.67;7.10;;;;;;;1.58;100.00;99827.52;1696108;83;21591;-75
2022/11/19 01:57:08;;;;;;;15.30;7.07;;;;;;;1.59;100.00;99837.20;1635345;85;21064;-76
2022/11/19 01:59:35;;;;;;;17.57;7.80;;;;;;;1.59;100.00;99828.71;1644576;86;21043;-75
2022/11/19 02:02:02;;;;;;;15.93;7.50;;;;;;;1.61;100.00;99817.94;1673836;83;21582;-77
2022/11/19 02:04:29;;;;;;;14.70;6.53;;;;;;;1.62;100.00;99814.31;1668005;85;21067;-75
2022/11/19 02:06:56;;;;;;;15.97;7.00;;;;;;;1.62;100.00;99811.16;1667982;85;21202;-78
2022/11/19 02:09:24;;;;;;;14.33;6.57;;;;;;;1.63;100.00;99809.33;1669398;85;21051;-74
2022/11/19 02:12:24;;;;;;;12.63;6.03;;;;;;;1.64;100.00;99804.38;1674353;86;21112;-77
2022/11/19 02:15:22;;;;;;;13.97;6.37;;;;;;;1.65;100.00;99824.25;1651796;85;21122;-76
2022/11/19 02:18:46;;;;;;;13.03;6.27;;;;;;;1.68;100.00;99833.36;1642854;87;21035;-74
2022/11/19 02:21:18;;;;;;;11.47;6.07;;;;;;;1.72;100.00;99844.62;1583923;89;21157;-74
2022/11/19 02:24:07;;;;;;;12.93;6.47;;;;;;;1.77;100.00;99833.59;1575057;89;21082;-75
2022/11/19 02:27:14;;;;;;;11.30;6.00;;;;;;;1.79;100.00;99832.52;1576489;89;21114;-76
2022/11/19 02:30:15;;;;;;;13.03;5.93;;;;;;;1.82;100.00;99827.41;1580426;89;21119;-76
2022/11/19 02:32:58;;;;;;;11.33;5.47;;;;;;;1.85;100.00;99825.84;1577391;89;21110;-77
2022/11/19 02:35:34;;;;;;;;;;;;;;;1.87;100.00;99828.74;1578593;89;21062;-73
2022/11/19 02:38:25;;;;;;;9.17;4.73;;;;;;;1.89;100.00;99813.50;1541367;91;20131;-77
2022/11/19 02:40:59;;;;;;;9.00;4.80;;;;;;;1.90;100.00;99812.52;1528875;91;21151;-75
2022/11/19 02:43:38;;;;;;;8.40;4.90;;;;;;;1.93;100.00;99785.23;1559965;91;21073;-77
2022/11/19 02:46:12;;;;;;;10.93;5.10;;;;;;;1.94;100.00;99777.61;1534243;91;21092;-77
2022/11/19 02:48:45;;;;;;;8.00;4.53;;;;;;;1.96;100.00;99775.66;1538614;91;21099;-77
2022/11/19 02:51:12;;;;;;;7.50;4.17;;;;;;;1.98;100.00;99758.56;1559587;90;21774;-76
2022/11/19 02:53:40;;;;;;;8.00;4.30;;;;;;;2.02;100.00;99759.16;1615742;86;21098;-74
2022/11/19 02:56:15;;;;;;;6.50;4.30;;;;;;;2.04;100.00;99763.41;1684158;84;21496;-76
2022/11/19 03:04:29;;;;;;;6.33;3.50;;;;;;;2.13;100.00;99743.66;1656868;85;21675;-76
2022/11/19 03:06:59;;;;;;;;;;;;;;;2.16;100.00;99738.05;1660123;86;21184;-73
2022/11/19 03:09:26;;;;;;;7.27;3.67;;;;;;;2.17;100.00;99745.09;1649338;86;20188;-76
2022/11/19 03:11:59;;;;;;;8.40;3.90;;;;;;;2.17;100.00;99739.26;1630813;86;21069;-77
2022/11/19 03:17:49;;;;;;;10.37;3.87;;;;;;;2.19;100.00;99739.14;1729958;81;21068;-78
2022/11/19 03:20:37;;;;;;;4.40;3.63;;;;;;;2.19;100.00;99741.31;1723630;83;21040;-76
2022/11/19 03:23:12;;;;;;;4.53;3.20;;;;;;;2.21;100.00;99730.52;1657416;86;21062;-76
2022/11/19 03:25:44;;;;;;;5.70;3.33;;;;;;;2.23;100.00;99740.11;1653360;85;21153;-76
2022/11/19 03:28:21;;;;;;;6.33;3.57;;;;;;;2.25;100.00;99725.31;1653978;86;21109;-75
2022/11/19 03:30:49;;;;;;;5.40;3.57;;;;;;;2.28;100.00;99722.38;1641206;86;21097;-74
2022/11/19 03:33:32;;;;;;;5.20;3.43;;;;;;;2.32;100.00;99718.97;1669764;85;21078;-76
2022/11/19 03:36:17;;;;;;;9.07;3.53;;;;;;;2.35;100.00;99696.04;1646929;86;21069;-75
2022/11/19 03:38:48;;;;;;;5.90;3.63;;;;;;;2.39;100.00;99696.14;1624598;87;21078;-75
2022/11/19 03:41:17;;;;;;;8.03;3.80;;;;;;;2.42;100.00;99698.06;1629111;87;21061;-76
2022/11/19 03:43:47;;;;;;;5.73;3.70;;;;;;;2.45;100.00;99685.81;1634224;87;21043;-76
2022/11/19 03:46:16;;;;;;;6.13;3.20;;;;;;;2.49;100.00;99691.73;1625342;87;21078;-77
2022/11/19 03:48:47;;;;;;;5.43;3.67;;;;;;;2.53;100.00;99707.00;1635362;85;21107;-75
2022/11/19 03:51:18;;;;;;;4.30;2.90;;;;;;;2.57;100.00;99691.12;1617525;87;21053;-76
2022/11/19 03:53:47;;;;;;;5.30;3.60;;;;;;;2.60;100.00;99693.51;1582211;89;21667;-77
2022/11/19 03:56:18;;;;;;;4.90;3.47;;;;;;;2.63;100.00;99692.77;1580118;89;21081;-77
2022/11/19 03:58:45;;;;;;;6.47;3.23;;;;;;;2.66;100.00;99698.34;1564610;90;21179;-79
2022/11/19 04:01:14;;;;;;;5.57;3.37;;;;;;;2.68;100.00;99681.70;1569990;90;21129;-80
2022/11/19 04:04:34;;;;;;;5.00;3.30;;;;;;;2.71;100.00;99670.78;1568765;90;21056;-79
2022/11/19 04:06:13;;;;;;;5.33;3.37;;;;;;;2.75;100.00;99662.02;1566756;90;21598;-77
2022/11/19 04:08:40;;;;;;;7.10;3.33;;;;;;;2.78;100.00;99663.07;1554035;90;21077;-74
2022/11/19 04:11:07;;;;;;;5.60;3.40;;;;;;;2.80;100.00;99648.63;1516778;93;21097;-74
2022/11/19 04:13:34;;;;;;;6.07;3.53;;;;;;;2.84;100.00;99638.53;1550545;91;21195;-75
2022/11/19 04:16:02;;;;;;;6.07;3.57;;;;;;;2.87;100.00;99638.28;1566912;90;21064;-74
2022/11/19 04:18:29;;;;;;;6.00;3.60;;;;;;;2.91;100.00;99639.70;1566726;90;21133;-75
2022/11/19 04:20:56;;;;;;;6.37;3.60;;;;;;;2.94;100.00;99623.41;1573197;89;21613;-77
2022/11/19 04:23:23;;;;;;;5.67;2.93;;;;;;;2.98;100.00;99606.64;1579071;88;21600;-77
2022/11/19 04:25:50;;;;;;;4.53;2.80;;;;;;;3.02;100.00;99586.19;1570193;89;21182;-74
2022/11/19 04:28:17;;;;;;;4.70;3.20;;;;;;;3.08;100.00;99597.31;1585920;88;21634;-75
2022/11/19 04:30:44;;;;;;;4.20;2.97;;;;;;;3.13;100.00;99595.93;1584157;88;21135;-74
2022/11/19 04:33:11;;;;;;;3.77;2.73;;;;;;;3.17;100.00;99592.03;1615722;86;21064;-75
2022/11/19 04:35:38;;;;;;;4.00;3.17;;;;;;;3.23;100.00;99578.62;1687674;84;21091;-74
2022/11/19 04:38:05;;;;;;;4.97;3.10;;;;;;;3.28;100.00;99563.52;1715284;84;21059;-73
2022/11/19 04:40:33;;;;;;;4.17;2.80;;;;;;;3.33;100.00;99548.77;1720508;81;21201;-74
2022/11/19 04:43:00;;;;;;;3.70;2.70;;;;;;;3.40;100.00;99542.39;1728123;82;21495;-74
2022/11/19 04:45:26;;;;;;;2.87;2.50;;;;;;;3.46;100.00;99514.27;1720980;82;21081;-76
2022/11/19 04:47:53;;;;;;;2.83;2.60;;;;;;;3.50;100.00;99505.80;1733308;82;21030;-75
2022/11/19 04:50:20;;;;;;;2.67;2.40;;;;;;;3.55;100.00;99526.28;1733640;82;21143;-75
2022/11/19 04:52:47;;;;;;;4.33;2.70;;;;;;;3.63;100.00;99535.44;1763769;81;21551;-78
2022/11/19 04:55:14;;;;;;;2.73;2.13;;;;;;;3.69;100.00;99537.08;1758743;81;21061;-75
2022/11/19 04:57:41;;;;;;;2.20;2.00;;;;;;;3.76;100.00;99528.01;1788273;79;21003;-75
2022/11/19 05:00:10;;;;;;;2.30;2.10;;;;;;;3.82;100.00;99531.95;1793085;79;21075;-75
2022/11/19 05:02:37;;;;;;;3.03;1.87;;;;;;;3.88;100.00;99542.94;1725012;82;21033;-79
2022/11/19 05:05:05;;;;;;;2.10;1.90;;;;;;;3.93;100.00;99526.45;1721129;83;21053;-72
2022/11/19 05:07:32;;;;;;;2.80;1.80;;;;;;;3.98;100.00;99526.88;1754680;81;21137;-74
2022/11/19 05:09:59;;;;;;;2.43;1.77;;;;;;;4.02;100.00;99530.98;1754086;81;20988;-75
2022/11/19 05:12:26;;;;;;;1.77;1.30;;;;;;;4.05;100.00;99520.47;1748039;81;21007;-74
2022/11/19 05:14:53;;;;;;;1.77;1.67;;;;;;;4.09;100.00;99512.50;1754808;81;21002;-74
2022/11/19 05:17:19;;;;;;;2.87;1.50;;;;;;;4.13;100.00;99517.44;1753053;81;21460;-73
2022/11/19 05:19:46;;;;;;;1.67;1.57;;;;;;;4.17;100.00;99510.80;1754589;81;21030;-74
2022/11/19 05:22:14;;;;;;;1.80;1.70;;;;;;;4.22;100.00;99508.22;1757231;80;21510;-75
2022/11/19 05:24:40;;;;;;;1.87;1.70;;;;;;;4.24;100.00;99497.70;1757597;81;21019;-74
2022/11/19 05:27:07;;;;;;;3.00;2.27;;;;;;;4.25;100.00;99487.36;1797998;79;21046;-74
2022/11/19 05:29:34;;;;;;;2.53;1.83;;;;;;;4.26;100.00;99485.02;1784220;78;21019;-74
2022/11/19 05:32:01;;;;;;;2.47;1.93;;;;;;;4.28;100.00;99486.21;1800190;79;21516;-75
2022/11/19 05:34:28;;;;;;;2.03;1.83;;;;;;;4.30;100.00;99496.27;1799973;79;21532;-73
2022/11/19 05:36:55;;;;;;;2.63;2.23;;;;;;;4.33;100.00;99496.83;1797221;79;21015;-74
2022/11/19 05:39:22;;;;;;;2.27;1.87;;;;;;;4.38;100.00;99500.42;1778378;79;21110;-74
2022/11/19 05:41:49;;;;;;;2.47;1.87;;;;;;;4.45;100.00;99507.39;1724252;83;21042;-71
2022/11/19 05:44:17;;;;;;;2.27;2.07;;;;;;;4.52;100.00;99497.28;1738247;82;21029;-74
2022/11/19 05:46:44;;;;;;;2.77;2.13;;;;;;;4.59;100.00;99502.91;1738720;82;21043;-73
2022/11/19 05:49:10;;;;;;;2.50;1.67;;;;;;;4.64;100.00;99493.94;1730357;82;21059;-74
2022/11/19 05:51:37;;;;;;;1.97;1.80;;;;;;;4.70;100.00;99471.08;1735219;82;21639;-75
2022/11/19 05:54:05;;;;;;;2.07;1.87;;;;;;;4.74;100.00;99447.02;1737050;82;21050;-75
2022/11/19 05:56:32;;;;;;;2.10;1.90;;;;;;;4.77;100.00;99428.48;1745505;82;21509;-74
2022/11/19 05:58:59;;;;;;;2.10;2.00;;;;;;;4.79;100.00;99431.35;1736179;82;20996;-75
2022/11/19 06:01:27;;;;;;;3.47;2.00;;;;;;;4.83;100.00;99435.91;1736536;82;21037;-73
2022/11/19 06:03:54;;;;;;;2.33;2.00;;;;;;;4.86;100.00;99429.76;1741698;82;21031;-73
2022/11/19 06:06:21;;;;;;;1.70;1.60;;;;;;;4.92;100.00;99433.20;1735175;81;21633;-75
2022/11/19 06:08:49;;;;;;;3.23;1.90;;;;;;;4.97;100.00;99422.52;1795093;79;21052;-74
2022/11/19 06:14:02;;;;;;;2.87;1.80;;;;;;;5.07;100.00;99395.17;1794827;79;20996;-74
2022/11/19 06:16:29;;;;;;;3.47;2.20;;;;;;;5.12;100.00;99392.38;1726177;83;21089;-73
2022/11/19 06:18:56;;;;;;;1.90;1.80;;;;;;;5.19;100.00;99400.66;1745313;81;21078;-75
2022/11/19 06:21:23;;;;;;;3.03;2.40;;;;;;;5.27;100.00;99391.84;1740483;82;21002;-73
2022/11/19 06:23:50;;;;;;;2.70;2.33;;;;;;;5.33;100.00;99397.44;1744501;82;21050;-73
2022/11/19 06:26:26;;;;;;;2.23;2.00;;;;;;;5.40;100.00;99404.86;1744448;82;21050;-73
2022/11/19 06:28:53;;;;;;;3.57;2.60;;;;;;;5.45;100.00;99424.02;1705726;81;21046;-74
2022/11/19 06:31:20;;;;;;;3.83;2.70;;;;;;;5.51;100.00;99420.73;1745983;81;21546;-71
2022/11/19 06:33:47;;;;;;;3.37;2.30;;;;;;;5.57;100.00;99423.30;1722214;82;21026;-76
2022/11/19 06:36:13;;;;;;;3.00;2.27;;;;;;;5.61;100.00;99409.91;1724961;82;21036;-76
2022/11/19 06:38:40;;;;;;;2.40;2.03;;;;;;;5.63;100.00;99402.07;1730541;83;21014;-75
2022/11/19 06:41:08;;;;;;;3.27;2.20;;;;;;;5.68;100.00;99401.11;1709486;83;21049;-76
2022/11/19 06:43:34;;;;;;;3.80;2.20;;;;;;;5.73;100.00;99407.84;1725790;82;21037;-74
2022/11/19 06:46:01;;;;;;;3.53;2.60;;;;;;;5.78;100.00;99418.95;1742276;81;21035;-77
2022/11/19 06:48:28;;;;;;;3.40;2.50;;;;;;;5.83;100.00;99417.98;1734900;81;21057;-75
2022/11/19 06:50:55;;;;;;;2.00;1.83;;;;;;;5.89;100.00;99398.56;1740775;82;21077;-76
2022/11/19 06:53:23;;;;;;;3.37;2.10;;;;;;;5.96;100.00;99393.45;1704434;83;21074;-73
2022/11/19 06:55:58;;;;;;;4.63;2.73;;;;;;;6.03;100.00;99394.50;1744093;82;21054;-74
2022/11/19 06:58:26;;;;;;;8.63;3.97;;;;;;;6.10;100.00;99393.38;1639407;86;21071;-74
2022/11/19 07:00:53;;;;;;;7.57;4.83;;;;;;;6.17;100.00;99384.52;1640090;86;21061;-77
2022/11/19 07:03:22;;;;;;;6.37;4.50;;;;;;;6.26;100.00;99384.08;1711195;83;21085;-77
2022/11/19 07:05:50;;;;;;;6.73;3.17;;;;;;;6.35;100.00;99374.22;1696218;82;21081;-76
2022/11/19 07:08:18;;;;;;;5.00;3.20;;;;;;;6.42;100.00;99363.17;1698532;83;21524;-77
2022/11/19 07:10:45;;;;;;;4.57;2.90;;;;;;;6.51;100.00;99347.43;1685526;83;21133;-76
2022/11/19 07:13:12;;;;;;;6.80;3.20;;;;;;;6.60;100.00;99347.80;1692362;83;21022;-76
2022/11/19 07:15:42;;;;;;;4.73;3.00;;;;;;;6.67;100.00;99338.59;1690635;83;21066;-79
2022/11/19 07:18:10;;;;;;;4.70;2.67;;;;;;;6.75;100.00;99341.31;1702712;83;21534;-77
2022/11/19 07:20:37;;;;;;;3.00;2.40;;;;;;;6.83;100.00;99329.25;1698402;82;21061;-78
2022/11/19 07:23:09;;;;;;;4.83;2.80;;;;;;;6.92;100.00;99326.05;1717469;82;21052;-78
2022/11/19 07:25:38;;;;;;;2.17;1.97;;;;;;;7.03;100.00;99327.61;1713507;82;21034;-74
2022/11/19 07:28:07;;;;;;;3.27;2.13;;;;;;;7.16;100.00;99329.80;1727924;82;21069;-75
2022/11/19 07:30:34;;;;;;;1.97;1.77;;;;;;;7.27;100.00;99316.53;1732509;80;20999;-73
2022/11/19 07:33:01;;;;;;;1.77;1.67;;;;;;;7.37;100.00;99316.70;1691932;82;21566;-76
2022/11/19 07:35:28;;;;;;;4.03;2.67;;;;;;;7.47;100.00;99304.44;1730941;82;21567;-72
2022/11/19 07:37:55;;;;;;;3.47;2.50;;;;;;;7.55;100.00;99295.00;1729439;82;21094;-75
2022/11/19 07:40:22;;;;;;;4.47;2.83;;;;;;;7.66;100.00;99288.42;1720944;82;21006;-71
2022/11/19 07:42:49;;;;;;;5.13;2.80;;;;;;;7.73;100.00;99284.04;1728023;82;21079;-72
2022/11/19 07:45:19;;;;;;;3.73;2.87;;;;;;;7.80;100.00;99278.81;1720777;82;21171;-74
2022/11/19 07:47:47;;;;;;;5.83;2.70;;;;;;;7.87;100.00;99279.80;1709194;83;21559;-73
2022/11/19 07:50:16;;;;;;;6.03;2.87;;;;;;;7.95;100.00;99278.45;1685717;83;21540;-74
2022/11/19 07:52:43;;;;;;;5.07;2.40;;;;;;;8.06;100.00;99280.44;1707474;83;21162;-73
2022/11/19 07:55:10;;;;;;;3.17;2.47;;;;;;;8.17;100.00;99263.89;1724904;81;21085;-73
2022/11/19 07:57:37;;;;;;;5.23;2.77;;;;;;;8.30;100.00;99270.06;1767622;79;21090;-71
2022/11/19 08:00:06;;;;;;;3.63;2.73;;;;;;;8.43;100.00;99260.95;1793954;79;21040;-73
2022/11/19 08:02:35;;;;;;;5.67;2.73;;;;;;;8.57;100.00;99262.55;1801043;78;20987;-73
2022/11/19 08:05:02;;;;;;;3.63;2.53;;;;;;;8.69;100.00;99261.13;1801717;79;21056;-74
2022/11/19 08:07:30;;;;;;;2.47;2.10;;;;;;;8.78;100.00;99265.97;1795703;78;21029;-73
2022/11/19 08:09:58;;;;;;;3.47;2.77;;;;;;;8.86;100.00;99258.66;1794528;79;21015;-73
2022/11/19 08:12:28;;;;;;;2.63;2.43;;;;;;;8.96;100.00;99260.28;1805758;77;21009;-74
2022/11/19 08:14:55;;;;;;;2.70;2.43;;;;;;;9.04;100.00;99271.84;1775953;79;21021;-73
2022/11/19 08:20:08;;;;;;;6.57;3.20;;;;;;;9.21;100.00;99267.70;1794533;79;20971;-73
2022/11/19 08:22:36;;;;;;;11.43;4.77;;;;;;;9.29;100.00;99273.00;1763071;79;21023;-71
2022/11/19 08:25:03;;;;;;;8.93;4.00;;;;;;;9.38;100.00;99266.50;1770202;80;21101;-72
2022/11/19 08:27:31;;;;;;;8.73;3.67;;;;;;;9.48;100.00;99252.77;1761917;80;21539;-74
2022/11/19 08:29:58;;;;;;;9.40;4.20;;;;;;;9.58;100.00;99243.91;1752882;80;21021;-73
2022/11/19 08:32:25;;;;;;;5.97;4.17;;;;;;;9.70;100.00;99245.63;1772608;79;21498;-71
2022/11/19 08:34:51;;;;;;;9.80;4.30;;;;;;;9.81;100.00;99233.52;1763184;80;21061;-77
2022/11/19 08:37:19;;;;;;;7.90;4.50;;;;;;;9.92;100.00;99239.00;1776397;80;21078;-74
2022/11/19 08:39:46;;;;;;;11.87;5.40;;;;;;;10.01;100.00;99231.95;1767821;79;21551;-73
2022/11/19 08:44:58;;;;;;;13.05;5.12;;;;;;;10.16;100.00;99239.20;1725325;82;21054;-75
2022/11/19 08:47:25;;;;;;;10.53;5.50;;;;;;;10.26;100.00;99223.02;1692111;83;21530;-72
2022/11/19 08:49:52;;;;;;;8.70;4.78;;;;;;;10.34;100.00;99232.94;1770415;80;21058;-72
2022/11/19 08:52:19;;;;;;;9.45;5.28;;;;;;;10.42;100.00;99224.70;1778912;80;21499;-73
2022/11/19 08:54:46;;;;;;;11.45;5.55;;;;;;;10.51;100.00;99219.19;1745231;82;21044;-74
2022/11/19 08:57:13;;;;;;;14.18;5.85;;;;;;;10.58;100.00;99207.94;1713404;83;21080;-72
2022/11/19 08:59:40;;;;;;;15.32;6.08;;;;;;;10.66;100.00;99211.02;1712458;82;21029;-71
2022/11/19 09:02:10;;;;;;;11.22;6.00;;;;;;;10.73;100.00;99197.05;1712725;83;21100;-74
2022/11/19 09:04:37;;;;;;;14.75;6.15;;;;;;;10.81;100.00;99218.05;1725329;82;21548;-74
2022/11/19 09:07:04;;;;;;;16.35;6.62;;;;;;;10.85;100.00;99204.15;1710723;83;21005;-72
2022/11/19 09:09:30;;;;;;;12.53;6.22;;;;;;;10.92;100.00;99205.05;1710569;82;21062;-74
2022/11/19 09:11:57;;;;;;;10.98;5.92;;;;;;;10.97;100.00;99203.42;1722478;82;21074;-76
2022/11/19 09:14:24;;;;;;;14.98;7.25;;;;;;;11.02;100.00;99198.27;1722699;82;21018;-74
2022/11/19 09:16:52;;;;;;;14.15;6.58;;;;;;;11.08;100.00;99199.36;1710435;83;21037;-73
2022/11/19 09:19:20;;;;;;;13.93;6.80;;;;;;;11.14;100.00;99191.83;1709858;83;21099;-74
2022/11/19 09:21:49;;;;;;;20.40;6.92;;;;;;;11.21;100.00;99189.19;1699076;83;21067;-74
2022/11/19 09:24:17;;;;;;;16.87;6.62;;;;;;;11.29;100.00;99182.25;1707033;81;21109;-74
2022/11/19 09:26:46;;;;;;;13.43;6.92;;;;;;;11.35;100.00;99188.25;1739138;81;21059;-76
2022/11/19 09:29:13;;;;;;;16.15;8.58;;;;;;;11.44;100.00;99184.87;1742666;81;21033;-75
2022/11/19 09:31:41;;;;;;;19.55;7.60;;;;;;;11.54;100.00;99187.22;1703229;82;21124;-74
2022/11/19 09:34:09;;;;;;;22.40;7.83;;;;;;;11.61;100.00;99176.44;1732794;81;21019;-79
2022/11/19 09:36:37;;;;;;;16.60;7.83;;;;;;;11.68;100.00;99189.50;1721718;81;21071;-77
2022/11/19 09:39:03;;;;;;;16.77;7.05;;;;;;;11.74;100.00;99186.02;1722379;82;21505;-78
2022/11/19 09:41:36;;;;;;;19.20;7.60;;;;;;;11.81;100.00;99188.73;1716568;81;21116;-77
2022/11/19 09:44:43;;;;;;;15.98;8.43;;;;;;;11.86;100.00;99182.20;1713768;83;21618;-77
2022/11/19 09:47:45;;;;;;;17.67;6.83;;;;;;;11.94;100.00;99184.78;1705233;83;21067;-75
2022/11/19 09:50:21;;;;;;;15.13;7.47;;;;;;;12.00;100.00;99183.14;1714635;82;21114;-78
2022/11/19 09:53:13;;;;;;;17.45;7.95;;;;;;;12.05;100.00;99183.38;1724918;81;21019;-77
2022/11/19 09:55:44;;;;;;;12.90;6.57;;;;;;;12.12;100.00;99189.66;1716609;82;21111;-75
2022/11/19 09:58:27;;;;;;;23.00;8.50;;;;;;;12.12;100.00;99189.66;1705110;82;22035;-80
2022/11/19 10:00:56;;;;;;;;;;;;;;;12.15;100.00;99196.86;1724674;81;21054;-81
2022/11/19 10:03:24;;;;;;;19.20;8.03;;;;;;;12.19;100.00;99204.59;1717886;82;20289;-78
2022/11/19 10:06:08;;;;;;;19.10;7.90;;;;;;;12.22;100.00;99208.27;1732201;81;21034;-76
2022/11/19 10:09:10;;;;;;;24.67;8.08;;;;;;;12.23;100.00;99208.04;1717392;82;21149;-75
2022/11/19 10:12:07;;;;;;;19.87;7.85;;;;;;;12.26;100.00;99221.72;1728361;81;21013;-77
2022/11/19 10:14:46;;;;;;;16.35;7.40;;;;;;;12.29;100.00;99222.68;1748553;81;21042;-79
2022/11/19 10:17:41;;;;;;;19.87;8.00;;;;;;;12.38;100.00;99223.31;1756738;80;21081;-77
2022/11/19 10:20:31;;;;;;;14.70;7.25;;;;;;;12.58;100.00;99257.30;1761711;80;21018;-73
2022/11/19 10:23:31;;;;;;;18.85;7.40;;;;;;;12.82;100.00;99251.33;1728996;80;20994;-75
2022/11/19 10:26:03;;;;;;;16.10;7.00;;;;;;;12.94;100.00;99245.28;1731604;81;21124;-74
2022/11/19 10:28:35;;;;;;;17.25;7.40;;;;;;;12.99;100.00;99259.91;1737436;82;21067;-75
2022/11/19 10:31:09;;;;;;;;;;;;;;;13.00;100.00;99262.12;1712065;82;21050;-72
2022/11/19 10:33:53;;;;;;;15.45;6.47;;;;;;;13.10;100.00;99270.17;1726282;82;20106;-73
2022/11/19 10:36:37;;;;;;;13.62;5.70;;;;;;;13.34;100.00;99270.64;1732119;82;21082;-78
2022/11/19 10:39:16;;;;;;;12.35;5.78;;;;;;;13.56;100.00;99267.71;1673794;85;21096;-72
2022/11/19 10:42:16;;;;;;;12.70;5.53;;;;;;;13.71;100.00;99258.00;1670509;84;21133;-73
2022/11/19 10:45:11;;;;;;;12.90;5.70;;;;;;;13.81;100.00;99229.86;1739038;82;21142;-75
2022/11/19 10:47:53;;;;;;;9.70;5.53;;;;;;;13.92;100.00;99193.89;1717224;82;21516;-73
2022/11/19 10:50:23;;;;;;;9.80;5.30;;;;;;;14.00;100.00;99116.72;1706413;82;21016;-72
2022/11/19 10:52:55;;;;;;;10.32;5.30;;;;;;;14.04;100.00;99095.70;1706317;82;21079;-72
2022/11/19 10:55:40;;;;;;;10.90;4.78;;;;;;;13.94;100.00;99087.70;1705420;83;21022;-74
2022/11/19 10:58:31;;;;;;;9.85;5.42;;;;;;;13.83;100.00;99072.91;1678338;85;21051;-73
2022/11/19 11:01:01;;;;;;;7.97;4.47;;;;;;;13.77;100.00;99086.80;1728409;82;21538;-75
2022/11/19 11:03:43;;;;;;;8.30;4.58;;;;;;;13.70;100.00;99076.49;1743789;82;21063;-72
2022/11/19 11:06:11;;;;;;;6.97;4.62;;;;;;;13.54;100.00;99057.43;1727218;82;21035;-74
2022/11/19 11:08:50;;;;;;;9.85;5.20;;;;;;;13.36;100.00;99058.66;1711783;82;21109;-73
2022/11/19 11:17:19;;;;;;;6.40;4.00;;;;;;;12.93;100.00;99125.08;1704529;83;21587;-75
2022/11/19 11:20:06;;;;;;;7.80;5.00;;;;;;;12.69;100.00;99116.48;1725353;82;21064;-75
2022/11/19 11:22:33;;;;;;;6.42;3.60;;;;;;;12.59;100.00;99088.97;1655361;84;21138;-74
2022/11/19 11:25:00;;;;;;;8.13;4.70;;;;;;;12.67;100.00;99090.09;1654060;85;21065;-76
2022/11/19 11:27:33;;;;;;;4.75;3.65;;;;;;;12.69;100.00;99079.88;1634873;86;21015;-79
2022/11/19 11:30:16;;;;;;;4.00;3.08;;;;;;;12.72;100.00;99069.14;1634782;86;21071;-79
2022/11/19 11:32:42;;;;;;;8.90;3.70;;;;;;;12.64;100.00;99045.80;1692570;82;21072;-79
2022/11/19 11:35:37;;;;;;;4.92;3.47;;;;;;;12.53;100.00;99028.77;1764844;79;20959;-78
2022/11/19 11:38:04;;;;;;;6.00;3.65;;;;;;;12.52;100.00;98984.56;1702013;83;21140;-81
2022/11/19 11:40:30;;;;;;;6.20;3.40;;;;;;;12.52;100.00;98937.64;1698137;83;21119;-77
2022/11/19 11:42:58;;;;;;;3.83;2.75;;;;;;;12.56;100.00;98939.41;1699798;81;21527;-78
2022/11/19 11:45:34;;;;;;;8.43;4.70;;;;;;;12.47;100.00;98930.12;1682928;81;21175;-76
2022/11/19 11:48:07;;;;;;;6.40;3.65;;;;;;;12.39;100.00;98960.69;1702720;81;21141;-82
2022/11/19 11:50:35;;;;;;;5.45;3.22;;;;;;;12.10;100.00;98962.24;1699626;82;21551;-81
2022/11/19 11:53:08;;;;;;;6.28;3.05;;;;;;;11.78;100.00;98978.20;1677107;81;21558;-84
2022/11/19 11:55:37;;;;;;;5.22;2.90;;;;;;;11.46;100.00;99004.14;1666406;84;21140;-75
2022/11/19 11:58:07;;;;;;;2.33;2.12;;;;;;;11.13;100.00;99038.63;1658060;84;21016;-77
2022/11/19 12:00:43;;;;;;;2.77;2.37;;;;;;;10.91;100.00;99054.64;1657021;84;21065;-76
2022/11/19 12:06:14;;;;;;;3.00;2.60;;;;;;;10.50;100.00;99091.81;1638181;86;21049;-80
2022/11/19 12:09:00;;;;;;;2.47;2.20;;;;;;;10.32;100.00;99122.83;1642401;84;21103;-79
2022/11/19 12:11:55;;;;;;;4.92;3.67;;;;;;;10.18;100.00;99152.91;1649711;84;21049;-78
2022/11/19 12:14:46;;;;;;;4.15;2.62;;;;;;;10.11;100.00;99171.39;1665592;84;21125;-76
2022/11/19 12:17:22;;;;;;;6.58;2.75;;;;;;;10.00;100.00;99199.20;1679310;83;21226;-78